KENV/ENV METAR and TAF weather

Enter ICAO airport designator
Station Type Date Time Source
KENV METAR 2019/02/20 16:56 UTC NOAA

KENV 201656Z AUTO 07006KT 10SM BKN055 BKN070 M04/M08 A2972 RMK AO2 SLP101 T10441083 FZRANO


Station Type Date Time Source
KENV Decoded METAR 2019/02/20 16:56 UTC NOAA

Wendover / Air Force Auxillary Field, UT, United States (KENV) 40-44N 114-02W 1292M
Feb 20, 2019 - 11:56 AM EST / 2019.02.20 1656 UTC
Wind: from the ENE (070 degrees) at 7 MPH (6 KT):0
Visibility: 10 mile(s):0
Sky conditions: mostly cloudy
Temperature: 24.1 F (-4.4 C)
Windchill: 15 F (-9 C):1
Dew Point: 17.1 F (-8.3 C)
Relative Humidity: 74%
Pressure (altimeter): 29.72 in. Hg (1006 hPa)
ob: KENV 201656Z AUTO 07006KT 10SM BKN055 BKN070 M04/M08 A2972 RMK AO2 SLP101 T10441083 FZRANO
cycle: 17

Station Type Date Time Source
KENV TAF 2019/02/20 18:22 UTC NOAA

TAF KENV 201720Z 2018/2118 12005KT P6SM VCSH SCT050 OVC080
FM211200 03010KT P6SM VCSH SCT020 OVC035


Example: see airport list